OMAD/AZI METAR and TAF weather

Enter ICAO airport designator
Station Type Date Time Source
OMAD METAR 2024/02/26 19:00 UTC NOAA

OMAD 261900Z 31009KT 9999 FEW025 21/15 Q1013 NOSIG


Station Type Date Time Source
OMAD Decoded METAR 2024/02/26 19:00 UTC NOAA

Abu Dhabi Bateen Airport, United Arab Emirates (OMAD) 24-26N 054-28E 3M
Feb 26, 2024 - 02:00 PM EST / 2024.02.26 1900 UTC
Wind: from the NW (310 degrees) at 10 MPH (9 KT):0
Visibility: greater than 7 mile(s):0
Sky conditions: mostly clear
Temperature: 69 F (21 C)
Dew Point: 59 F (15 C)
Relative Humidity: 68%
Pressure (altimeter): 29.91 in. Hg (1013 hPa)
ob: OMAD 261900Z 31009KT 9999 FEW025 21/15 Q1013 NOSIG
cycle: 19

Station Type Date Time Source
OMAD TAF 2024/02/26 18:00 UTC NOAA